Time;durP1;ratioP1;P1;durP2;ratioP2;P2;SDS_P1;SDS_P2;PMS_P1;PMS_P2;Temp;Humidity;BMP_temperature;BMP_pressure;BME280_temperature;BME280_humidity;BME280_pressure;Samples;Min_cycle;Max_cycle;Signal;HPM_P1;HPM_P2
2024/01/09 00:02:22;;;;;;;23.75;16.30;;;;;;;15.86;40.87;94017.34;4971267;28;20046;-89
2024/01/09 00:04:48;;;;;;;25.42;17.30;;;;;;;15.77;41.05;94019.03;4980190;28;20042;-87
2024/01/09 00:07:13;;;;;;;24.02;16.85;;;;;;;15.79;40.98;94007.66;4949284;28;20459;-87
2024/01/09 00:09:38;;;;;;;22.42;17.27;;;;;;;15.77;40.76;94008.13;4983471;28;20488;-87
2024/01/09 00:12:04;;;;;;;26.25;16.73;;;;;;;15.79;41.05;94009.63;4999555;28;20524;-87
2024/01/09 00:14:30;;;;;;;27.13;17.35;;;;;;;15.79;40.98;93999.47;4938994;28;20042;-87
2024/01/09 00:16:55;;;;;;;24.27;16.30;;;;;;;15.89;40.72;93998.06;4979032;28;20042;-87
2024/01/09 00:19:21;;;;;;;24.52;16.80;;;;;;;15.81;41.12;94010.63;4950050;28;20050;-87
2024/01/09 00:21:47;;;;;;;26.60;16.63;;;;;;;15.82;40.98;94016.81;4918072;28;20091;-88
2024/01/09 00:24:13;;;;;;;23.85;16.17;;;;;;;15.84;40.70;94001.47;4934469;28;20042;-87
2024/01/09 00:26:42;;;;;;;23.83;16.92;;;;;;;15.86;40.95;94006.44;4915836;29;20534;-87
2024/01/09 00:29:07;;;;;;;22.70;16.08;;;;;;;15.82;40.58;94017.56;4931311;28;20039;-88
2024/01/09 00:31:33;;;;;;;22.00;15.40;;;;;;;15.77;40.94;94010.84;4959837;28;20054;-87
2024/01/09 00:33:59;;;;;;;23.20;15.68;;;;;;;15.83;40.73;94012.84;4926035;29;20043;-87
2024/01/09 00:36:24;;;;;;;22.63;15.20;;;;;;;15.82;40.96;94020.28;4943421;29;20078;-88
2024/01/09 00:38:50;;;;;;;23.77;15.55;;;;;;;15.80;41.00;94024.75;4948089;28;20043;-88
2024/01/09 00:41:15;;;;;;;19.25;14.18;;;;;;;15.86;40.49;94029.00;4918126;28;20536;-88
2024/01/09 00:43:41;;;;;;;23.08;15.57;;;;;;;15.82;40.85;94027.72;4921288;29;20039;-87
2024/01/09 00:46:06;;;;;;;22.40;15.32;;;;;;;15.83;40.79;94026.50;4947087;28;20051;-87
2024/01/09 00:48:32;;;;;;;20.88;14.95;;;;;;;15.82;41.11;94027.72;4924041;28;20495;-87
2024/01/09 00:50:57;;;;;;;24.20;15.45;;;;;;;15.78;41.08;94030.69;4957594;28;20042;-87
2024/01/09 00:53:22;;;;;;;18.50;14.05;;;;;;;15.79;41.19;94029.44;4969420;28;20117;-87
2024/01/09 00:55:48;;;;;;;20.83;14.73;;;;;;;15.81;41.19;94031.66;4957560;28;20574;-88
2024/01/09 00:58:13;;;;;;;22.33;15.20;;;;;;;15.82;40.44;94031.19;4970246;28;20455;-87
2024/01/09 01:00:39;;;;;;;22.63;15.50;;;;;;;15.81;40.93;94039.84;4970915;28;20057;-88
2024/01/09 01:03:04;;;;;;;18.95;14.32;;;;;;;15.81;40.75;94042.56;4969778;28;20042;-88
2024/01/09 01:05:30;;;;;;;20.95;14.45;;;;;;;15.82;40.91;94042.09;4955177;28;20064;-87
2024/01/09 01:07:55;;;;;;;21.50;14.00;;;;;;;15.79;41.14;94043.09;4970216;28;20125;-87
2024/01/09 01:10:21;;;;;;;20.65;14.35;;;;;;;15.77;40.94;94045.53;4970335;28;20054;-87
2024/01/09 01:12:46;;;;;;;19.05;13.63;;;;;;;15.76;41.19;94044.03;4966809;28;20038;-88
2024/01/09 01:15:12;;;;;;;21.40;13.48;;;;;;;15.77;41.05;94040.81;4951472;28;20673;-88
2024/01/09 01:17:37;;;;;;;18.38;12.65;;;;;;;15.80;40.99;94041.84;4965064;28;20061;-88
2024/01/09 01:20:03;;;;;;;21.27;12.80;;;;;;;15.80;40.99;94052.00;4969436;28;20042;-87
2024/01/09 01:22:28;;;;;;;20.20;13.93;;;;;;;15.77;40.98;94049.00;4959294;28;20097;-88
2024/01/09 01:24:54;;;;;;;18.98;13.18;;;;;;;15.82;40.63;94047.56;4968897;28;20046;-87
2024/01/09 01:27:19;;;;;;;19.52;13.93;;;;;;;15.84;40.88;94044.34;4986214;28;20505;-87
2024/01/09 01:29:45;;;;;;;18.50;13.48;;;;;;;15.83;40.74;94045.56;4970743;28;20046;-87
2024/01/09 01:32:10;;;;;;;16.40;13.05;;;;;;;15.86;40.15;94045.38;4969065;28;20505;-87
2024/01/09 01:34:38;;;;;;;18.02;12.95;;;;;;;15.83;40.63;94040.13;4953213;28;20058;-87
2024/01/09 01:37:05;;;;;;;18.00;12.18;;;;;;;15.90;40.62;94043.19;4970148;28;20496;-87
2024/01/09 01:39:30;;;;;;;17.73;12.80;;;;;;;15.89;40.28;94046.41;4970916;28;20054;-87
2024/01/09 01:41:56;;;;;;;17.80;13.02;;;;;;;15.85;40.69;94041.16;4986091;28;20034;-87
2024/01/09 01:44:22;;;;;;;16.25;11.57;;;;;;;15.80;41.02;94054.72;4966749;28;20200;-87
2024/01/09 01:46:47;;;;;;;15.93;12.27;;;;;;;15.83;40.60;94045.56;4967065;28;20562;-88
2024/01/09 01:49:13;;;;;;;19.02;11.82;;;;;;;15.86;40.27;94048.09;4962602;28;20031;-87
2024/01/09 01:51:39;;;;;;;17.60;12.93;;;;;;;15.76;41.08;94047.50;4967066;28;20027;-88
2024/01/09 01:54:05;;;;;;;18.30;11.85;;;;;;;15.82;40.52;94044.81;4966150;28;20050;-87
2024/01/09 01:56:30;;;;;;;18.20;12.25;;;;;;;15.77;40.78;94040.81;4966234;28;20488;-87
2024/01/09 01:58:56;;;;;;;20.50;13.07;;;;;;;15.75;40.99;94037.81;4959515;28;20058;-87
2024/01/09 02:01:21;;;;;;;16.05;11.95;;;;;;;15.79;40.59;94029.44;4984841;28;20439;-88
2024/01/09 02:03:47;;;;;;;17.45;12.77;;;;;;;15.79;40.51;94024.00;4942948;28;20043;-88
2024/01/09 02:06:12;;;;;;;16.45;11.25;;;;;;;15.82;40.46;94036.66;4950737;28;20050;-87
2024/01/09 02:08:38;;;;;;;17.13;11.75;;;;;;;15.85;39.91;94029.50;4968511;28;20042;-87
2024/01/09 02:11:03;;;;;;;16.65;11.68;;;;;;;15.76;40.97;94042.06;4952529;28;20539;-88
2024/01/09 02:13:28;;;;;;;14.65;11.27;;;;;;;15.83;40.79;94037.41;4960470;28;20584;-88
2024/01/09 02:15:54;;;;;;;17.48;11.40;;;;;;;15.76;40.74;94044.03;4951971;28;20422;-87
2024/01/09 02:18:19;;;;;;;17.98;11.80;;;;;;;15.77;40.93;94042.81;4968844;28;20038;-87
2024/01/09 02:20:45;;;;;;;17.92;11.63;;;;;;;15.79;40.81;94036.88;4968604;28;20047;-88
2024/01/09 02:23:10;;;;;;;17.58;11.85;;;;;;;15.77;40.67;94042.81;4964531;28;20046;-87
2024/01/09 02:25:36;;;;;;;17.30;11.98;;;;;;;15.70;41.08;94035.03;4954405;28;20043;-87
2024/01/09 02:28:14;;;;;;;17.17;12.27;;;;;;;15.74;40.61;94036.31;4978577;28;20050;-87
2024/01/09 02:30:39;;;;;;;15.35;10.45;;;;;;;15.68;41.38;94032.78;4985374;28;20125;-87
2024/01/09 02:33:06;;;;;;;16.08;11.93;;;;;;;15.75;40.82;94040.56;4968358;28;20392;-88
2024/01/09 02:35:32;;;;;;;14.30;10.80;;;;;;;15.79;40.42;94042.34;4982329;28;20121;-87
2024/01/09 02:37:57;;;;;;;14.68;9.90;;;;;;;15.72;40.96;94035.31;4985463;28;20361;-88
2024/01/09 02:40:23;;;;;;;16.52;11.18;;;;;;;15.70;40.93;94038.50;4951991;28;20046;-87
2024/01/09 02:42:48;;;;;;;16.05;10.88;;;;;;;15.72;40.63;94029.84;4965731;28;20053;-87
2024/01/09 02:45:13;;;;;;;13.95;9.98;;;;;;;15.75;40.87;94040.56;4953749;28;20452;-87
2024/01/09 02:47:39;;;;;;;13.77;10.65;;;;;;;15.75;40.42;94031.63;4966159;28;20043;-87
2024/01/09 02:50:05;;;;;;;16.83;10.52;;;;;;;15.75;40.81;94032.38;4963148;28;20038;-87
2024/01/09 02:52:30;;;;;;;12.35;9.45;;;;;;;15.77;40.23;94032.66;4969174;28;20644;-88
2024/01/09 02:54:56;;;;;;;14.38;10.27;;;;;;;15.81;40.38;94037.88;4965739;28;20085;-87
2024/01/09 02:57:21;;;;;;;15.60;10.77;;;;;;;15.80;40.74;94032.94;4966592;28;20047;-88
2024/01/09 02:59:47;;;;;;;13.30;10.43;;;;;;;15.70;40.58;94035.03;4977130;28;20073;-88
2024/01/09 03:02:12;;;;;;;15.90;10.57;;;;;;;15.71;40.72;94037.28;4964431;28;20163;-87
2024/01/09 03:04:37;;;;;;;14.48;10.20;;;;;;;15.70;40.73;94032.31;4965763;28;20061;-87
2024/01/09 03:07:03;;;;;;;15.60;10.73;;;;;;;15.73;40.68;94036.81;4966532;28;20038;-88
2024/01/09 03:09:28;;;;;;;13.57;9.88;;;;;;;15.79;40.08;94026.72;4965769;28;20160;-87
2024/01/09 03:11:57;;;;;;;14.20;10.45;;;;;;;15.84;39.78;94028.75;4950014;28;20043;-88
2024/01/09 03:14:22;;;;;;;14.07;10.93;;;;;;;15.71;40.55;94029.09;4984283;28;24987;-87
2024/01/09 03:16:48;;;;;;;13.20;9.90;;;;;;;15.80;40.35;94033.69;4968502;28;20098;-89
2024/01/09 03:19:13;;;;;;;15.15;9.88;;;;;;;15.76;40.60;94033.13;4968889;28;20051;-87
2024/01/09 03:21:38;;;;;;;13.70;9.75;;;;;;;15.82;39.93;94041.34;4968794;28;20038;-87
2024/01/09 03:24:04;;;;;;;13.35;9.93;;;;;;;15.77;40.60;94024.47;4967774;28;20132;-87
2024/01/09 03:26:30;;;;;;;15.43;10.02;;;;;;;15.82;40.16;94025.00;4970423;28;20133;-87
2024/01/09 03:28:55;;;;;;;11.43;9.05;;;;;;;15.79;40.12;94028.69;4963317;28;20053;-87
2024/01/09 03:31:21;;;;;;;12.68;9.43;;;;;;;15.84;40.48;94026.00;4967716;28;20034;-88
2024/01/09 03:33:47;;;;;;;12.45;9.73;;;;;;;15.82;40.37;94025.75;4968278;28;20045;-87
2024/01/09 03:36:13;;;;;;;17.00;9.85;;;;;;;15.81;40.38;94026.22;4968029;28;20042;-87
2024/01/09 03:38:39;;;;;;;12.70;9.25;;;;;;;15.77;40.33;94029.94;4984400;28;20061;-87
2024/01/09 03:41:04;;;;;;;14.82;10.05;;;;;;;15.83;39.95;94021.78;4951774;28;20089;-88
2024/01/09 03:43:30;;;;;;;15.55;9.52;;;;;;;15.78;40.25;94017.03;4958315;28;20046;-87
2024/01/09 03:45:57;;;;;;;13.43;9.43;;;;;;;15.81;39.77;94015.31;4955147;28;20050;-88
2024/01/09 03:48:22;;;;;;;14.27;9.38;;;;;;;15.78;40.39;94017.03;4967798;28;20151;-87
2024/01/09 03:50:47;;;;;;;14.18;9.48;;;;;;;15.81;40.19;94020.75;4960295;28;20046;-87
2024/01/09 03:53:13;;;;;;;10.65;7.80;;;;;;;15.85;39.69;94030.25;4964377;28;20053;-87
2024/01/09 03:55:38;;;;;;;15.43;8.75;;;;;;;15.81;40.01;94034.41;4965514;28;20053;-87
2024/01/09 03:58:04;;;;;;;11.88;9.07;;;;;;;15.76;40.32;94028.44;4970382;28;20042;-88
2024/01/09 04:00:29;;;;;;;12.35;8.63;;;;;;;15.77;39.94;94026.44;4949315;28;20229;-87
2024/01/09 04:02:55;;;;;;;13.73;9.18;;;;;;;15.78;40.06;94022.50;4966480;28;20039;-87
2024/01/09 04:05:20;;;;;;;11.63;8.68;;;;;;;15.73;40.42;94029.38;4952946;28;20047;-87
2024/01/09 04:07:48;;;;;;;12.20;9.20;;;;;;;15.72;40.21;94024.41;4950197;28;20043;-87
2024/01/09 04:10:14;;;;;;;11.68;8.75;;;;;;;15.70;40.49;94022.16;4984393;28;20042;-87
2024/01/09 04:12:39;;;;;;;11.93;8.60;;;;;;;15.73;40.43;94036.81;4984128;28;20568;-87
2024/01/09 04:15:06;;;;;;;14.63;9.80;;;;;;;15.72;40.19;94022.44;4965640;28;20141;-87
2024/01/09 04:17:31;;;;;;;14.32;9.07;;;;;;;15.70;40.15;94037.75;4966769;28;20039;-88
2024/01/09 04:19:58;;;;;;;18.48;8.88;;;;;;;15.78;39.72;94033.41;4947436;28;20047;-88
2024/01/09 04:22:23;;;;;;;15.15;8.95;;;;;;;15.70;40.79;94040.47;4948543;28;20042;-88
2024/01/09 04:24:49;;;;;;;11.45;8.52;;;;;;;15.66;40.39;94037.97;4966261;28;20035;-88
2024/01/09 04:27:14;;;;;;;62.63;39.53;;;;;;;15.65;40.22;94032.97;4977380;28;20053;-88
2024/01/09 04:29:39;;;;;;;16.90;10.60;;;;;;;15.67;40.58;94036.72;4952156;28;20050;-88
2024/01/09 04:32:05;;;;;;;16.65;11.48;;;;;;;15.81;40.28;94034.41;4966257;28;20039;-88
2024/01/09 04:34:31;;;;;;;14.55;10.15;;;;;;;15.76;40.29;94039.31;4983229;28;20066;-88
2024/01/09 04:36:56;;;;;;;16.63;10.00;;;;;;;15.76;40.12;94038.56;4954339;28;20109;-87
2024/01/09 04:39:21;;;;;;;40.10;27.73;;;;;;;15.79;40.28;94034.16;4981737;28;20046;-89
2024/01/09 04:41:47;;;;;;;58.53;40.92;;;;;;;15.84;39.71;94036.16;4988519;28;20046;-88
2024/01/09 04:44:22;;;;;;;33.97;25.27;;;;;;;15.83;39.90;94040.88;4970084;28;20045;-93
2024/01/09 04:46:48;;;;;;;25.60;16.65;;;;;;;15.90;40.09;94037.75;4950084;28;20070;-89
2024/01/09 04:49:13;;;;;;;24.38;16.70;;;;;;;15.88;39.68;94037.47;4968606;28;20515;-87
2024/01/09 04:51:40;;;;;;;104.35;48.40;;;;;;;15.89;39.89;94043.66;4957865;28;20096;-87
2024/01/09 04:54:05;;;;;;;83.57;39.55;;;;;;;15.89;39.13;94041.69;4982150;28;20037;-89
2024/01/09 04:56:32;;;;;;;63.22;23.88;;;;;;;15.86;39.33;94042.66;4970458;28;20403;-89
2024/01/09 04:58:57;;;;;;;94.88;41.47;;;;;;;15.71;38.21;94036.53;4978667;28;20038;-88
2024/01/09 05:01:23;;;;;;;69.55;30.42;;;;;;;15.45;31.78;94039.16;4986754;28;20069;-88
2024/01/09 05:03:49;;;;;;;59.67;26.67;;;;;;;15.14;30.40;94033.56;4987533;28;20163;-88
2024/01/09 05:06:16;;;;;;;64.05;30.52;;;;;;;14.86;27.71;94044.03;4966854;28;20083;-89
2024/01/09 05:08:41;;;;;;;82.50;40.00;;;;;;;14.65;26.36;94035.81;4949128;28;20512;-89
2024/01/09 05:11:07;;;;;;;63.92;32.08;;;;;;;14.53;26.21;94036.06;4974821;28;20062;-88
2024/01/09 05:13:32;;;;;;;89.43;38.25;;;;;;;14.66;27.26;94040.03;4960876;28;20284;-89
2024/01/09 05:15:58;;;;;;;108.68;48.53;;;;;;;14.70;27.39;94026.22;4945654;28;20047;-87
2024/01/09 05:18:23;;;;;;;120.22;50.33;;;;;;;14.80;27.91;94030.31;4985320;28;20093;-86
2024/01/09 05:20:48;;;;;;;133.93;55.20;;;;;;;14.91;28.85;94038.69;4950734;28;20456;-87
2024/01/09 05:23:14;;;;;;;104.60;49.90;;;;;;;14.92;29.58;94040.19;4969063;28;20428;-90
2024/01/09 05:25:39;;;;;;;133.63;53.10;;;;;;;14.91;30.93;94035.19;4982975;28;20043;-90
2024/01/09 05:28:05;;;;;;;152.45;50.50;;;;;;;15.07;31.73;94040.13;4981714;28;20046;-89
2024/01/09 05:30:30;;;;;;;152.77;72.55;;;;;;;14.97;31.63;94046.91;4967546;28;20042;-86
2024/01/09 05:32:56;;;;;;;145.82;67.30;;;;;;;15.14;32.08;94037.03;4986583;28;20042;-92
2024/01/09 05:35:21;;;;;;;147.38;69.45;;;;;;;15.20;32.74;94040.56;4964709;28;20041;-89
2024/01/09 05:37:47;;;;;;;215.43;88.68;;;;;;;15.29;34.03;94042.41;4964874;28;20082;-90
2024/01/09 05:40:12;;;;;;;170.25;81.25;;;;;;;15.23;33.18;94038.84;4946715;28;20042;-90
2024/01/09 05:42:38;;;;;;;221.80;108.70;;;;;;;15.23;34.05;94047.03;4966730;28;20604;-91
2024/01/09 05:45:04;;;;;;;301.40;152.15;;;;;;;15.30;34.28;94046.63;4963372;28;20042;-89
2024/01/09 05:47:30;;;;;;;246.05;120.63;;;;;;;15.36;34.16;94042.78;4985804;28;20184;-90
2024/01/09 05:49:56;;;;;;;166.32;92.65;;;;;;;15.21;32.06;94044.03;4961677;28;20083;-91
2024/01/09 05:52:21;;;;;;;215.68;103.57;;;;;;;15.20;33.18;94050.69;4973539;28;20070;-91
2024/01/09 05:54:47;;;;;;;232.75;107.57;;;;;;;15.22;32.98;94042.81;4971092;28;20068;-91
2024/01/09 05:57:13;;;;;;;207.38;100.45;;;;;;;15.30;33.14;94050.13;4971456;28;20043;-87
2024/01/09 05:59:38;;;;;;;239.55;111.00;;;;;;;15.31;33.67;94048.88;4962844;28;20097;-88
2024/01/09 06:02:03;;;;;;;235.95;108.50;;;;;;;15.33;33.58;94045.69;4957617;28;20031;-92
2024/01/09 06:04:29;;;;;;;229.05;110.93;;;;;;;15.38;34.26;94056.66;4946080;28;20054;-87
2024/01/09 06:06:54;;;;;;;306.58;122.18;;;;;;;15.36;34.58;94053.66;4934108;28;20043;-90
2024/01/09 06:09:20;;;;;;;333.58;148.57;;;;;;;15.46;34.61;94050.81;4921233;28;20075;-89
2024/01/09 06:11:46;;;;;;;275.17;117.03;;;;;;;15.37;34.33;94052.41;4929225;28;20047;-90
2024/01/09 06:14:12;;;;;;;252.27;111.22;;;;;;;15.38;34.49;94055.88;4916540;28;20522;-91
2024/01/09 06:16:37;;;;;;;292.33;108.88;;;;;;;15.55;34.46;94047.97;4920907;29;20055;-87
2024/01/09 06:19:04;;;;;;;282.02;122.88;;;;;;;15.41;34.49;94058.41;4928572;28;20056;-88
2024/01/09 06:21:29;;;;;;;273.85;115.00;;;;;;;15.55;34.31;94056.88;4927411;28;20117;-89
2024/01/09 06:23:54;;;;;;;252.73;112.60;;;;;;;15.49;34.69;94053.31;4933659;28;20035;-89
2024/01/09 06:26:20;;;;;;;253.57;108.40;;;;;;;15.47;34.93;94055.78;4919012;28;20432;-90
2024/01/09 06:28:45;;;;;;;289.75;118.72;;;;;;;15.54;34.44;94051.91;4936234;28;20057;-90
2024/01/09 06:31:11;;;;;;;287.45;120.35;;;;;;;15.53;34.76;94064.78;4936208;28;20050;-90
2024/01/09 06:33:36;;;;;;;258.23;124.40;;;;;;;15.56;34.63;94061.13;4936340;28;20050;-90
2024/01/09 06:36:03;;;;;;;339.83;147.05;;;;;;;15.61;34.62;94065.13;4959720;28;20057;-93
2024/01/09 06:38:29;;;;;;;343.10;146.05;;;;;;;15.62;34.81;94064.66;4982996;28;20125;-90
2024/01/09 06:40:54;;;;;;;364.55;163.45;;;;;;;15.56;35.02;94052.22;4975395;28;20101;-88
2024/01/09 06:43:20;;;;;;;354.88;169.77;;;;;;;15.54;35.05;94065.53;4957841;28;20055;-91
2024/01/09 06:45:46;;;;;;;346.38;169.63;;;;;;;15.61;35.06;94067.84;4979416;28;20061;-90
2024/01/09 06:48:12;;;;;;;304.33;147.77;;;;;;;15.65;34.98;94071.13;4955687;28;20035;-91
2024/01/09 06:50:40;;;;;;;303.20;147.23;;;;;;;15.70;35.07;94068.50;4976609;28;20047;-92
2024/01/09 06:53:06;;;;;;;294.52;147.60;;;;;;;15.73;35.17;94074.97;4973306;28;20046;-89
2024/01/09 06:55:31;;;;;;;282.02;140.70;;;;;;;15.66;35.32;94078.09;4975782;28;20691;-91
2024/01/09 06:57:58;;;;;;;291.45;141.23;;;;;;;15.69;35.10;94068.97;4972546;28;20113;-89
2024/01/09 07:00:24;;;;;;;245.82;123.90;;;;;;;15.81;35.11;94080.75;4992249;28;20061;-90
2024/01/09 07:02:53;;;;;;;268.55;134.07;;;;;;;15.80;35.11;94079.25;4970318;28;20098;-94
2024/01/09 07:05:18;;;;;;;267.35;135.55;;;;;;;15.73;35.61;94078.44;4961895;28;20042;-93
2024/01/09 07:07:44;;;;;;;256.52;129.75;;;;;;;15.78;35.38;94079.75;4956698;28;20567;-92
2024/01/09 07:10:11;;;;;;;259.98;133.02;;;;;;;15.73;35.63;94094.78;4977572;28;20077;-90
2024/01/09 07:12:36;;;;;;;222.00;122.53;;;;;;;15.75;35.38;94105.97;4967063;28;20031;-88
2024/01/09 07:15:02;;;;;;;226.32;119.07;;;;;;;15.75;35.42;94099.78;4950656;28;20039;-91
2024/01/09 07:17:28;;;;;;;214.15;117.63;;;;;;;15.75;35.38;94108.69;4963881;28;20042;-92
2024/01/09 07:19:53;;;;;;;203.38;106.28;;;;;;;15.78;35.07;94101.56;4974849;28;20038;-93
2024/01/09 07:22:21;;;;;;;207.68;113.93;;;;;;;15.76;35.06;94109.44;4969487;28;20046;-91
2024/01/09 07:24:47;;;;;;;207.75;108.75;;;;;;;15.74;35.30;94109.94;4975177;28;20078;-90
2024/01/09 07:27:12;;;;;;;204.52;104.32;;;;;;;15.79;35.29;94113.22;4966781;28;20055;-90
2024/01/09 07:29:38;;;;;;;216.32;108.78;;;;;;;15.79;35.33;94115.94;4968844;28;20113;-89
2024/01/09 07:32:04;;;;;;;192.30;100.47;;;;;;;15.82;35.54;94114.97;4956086;28;20042;-91
2024/01/09 07:34:29;;;;;;;212.85;109.78;;;;;;;15.72;35.77;94120.56;4969332;28;20050;-90
2024/01/09 07:36:56;;;;;;;252.88;114.03;;;;;;;15.73;35.75;94126.75;4972001;28;20054;-90
2024/01/09 07:39:21;;;;;;;189.32;96.22;;;;;;;15.67;36.11;94120.47;4974163;28;20037;-91
2024/01/09 07:41:47;;;;;;;194.10;102.07;;;;;;;15.70;35.68;94123.00;4966718;28;20042;-90
2024/01/09 07:44:13;;;;;;;222.13;102.03;;;;;;;15.67;35.98;94121.22;4967870;28;20061;-91
2024/01/09 07:46:40;;;;;;;214.93;100.82;;;;;;;15.75;35.83;94129.75;4960737;28;20046;-93
2024/01/09 07:49:06;;;;;;;186.65;98.20;;;;;;;15.73;35.77;94130.22;4970376;28;20027;-90
2024/01/09 07:51:32;;;;;;;227.13;112.05;;;;;;;15.70;36.05;94127.69;4958043;28;20057;-87
2024/01/09 07:53:57;;;;;;;219.65;103.05;;;;;;;15.79;35.72;94124.09;4978855;28;20038;-87
2024/01/09 07:56:23;;;;;;;189.50;97.88;;;;;;;15.74;36.07;94125.53;4969604;28;20051;-89
2024/01/09 07:58:49;;;;;;;204.95;103.30;;;;;;;15.78;36.12;94123.34;4977529;28;20039;-86
2024/01/09 08:01:15;;;;;;;196.98;103.05;;;;;;;15.79;36.00;94135.00;4979511;28;20464;-88
2024/01/09 08:03:41;;;;;;;243.27;120.93;;;;;;;15.77;35.82;94138.22;4963187;28;20813;-85
2024/01/09 08:06:11;;;;;;;237.65;119.82;;;;;;;15.88;35.92;94132.88;4969222;28;20042;-91
2024/01/09 08:08:38;;;;;;;247.60;129.40;;;;;;;15.84;36.19;94137.78;4975135;28;20557;-88
2024/01/09 08:11:04;;;;;;;255.88;133.45;;;;;;;15.89;36.12;94136.38;4956042;28;20045;-89
2024/01/09 08:13:30;;;;;;;238.02;129.32;;;;;;;15.94;35.94;94135.69;4985267;28;20057;-87
2024/01/09 08:15:56;;;;;;;235.18;133.68;;;;;;;15.84;36.01;94142.50;5002023;28;20050;-88
2024/01/09 08:18:22;;;;;;;237.55;131.10;;;;;;;15.97;36.21;94140.94;4972479;28;20031;-89
2024/01/09 08:20:48;;;;;;;246.85;137.05;;;;;;;15.90;36.09;94135.91;4977998;28;20047;-87
2024/01/09 08:23:14;;;;;;;247.75;139.93;;;;;;;15.89;36.22;94137.13;4970236;28;20058;-87
2024/01/09 08:25:39;;;;;;;249.20;142.32;;;;;;;15.95;35.83;94131.75;4957677;28;20042;-92
2024/01/09 08:28:05;;;;;;;302.48;154.32;;;;;;;15.89;36.47;94128.94;4971918;28;20063;-87
2024/01/09 08:30:30;;;;;;;271.48;152.95;;;;;;;15.90;36.33;94132.41;4968128;28;20050;-88
2024/01/09 08:32:56;;;;;;;276.98;148.52;;;;;;;15.99;36.24;94124.13;4946865;28;20042;-91
2024/01/09 08:35:21;;;;;;;279.08;156.27;;;;;;;15.94;36.56;94133.72;4956720;28;20038;-86
2024/01/09 08:37:47;;;;;;;301.13;173.30;;;;;;;15.89;36.36;94123.50;4976095;28;20065;-89
2024/01/09 08:40:14;;;;;;;349.98;192.52;;;;;;;15.92;36.32;94125.25;4964807;28;20047;-89
2024/01/09 08:42:40;;;;;;;329.92;193.80;;;;;;;15.92;36.62;94127.25;4968440;28;20106;-89
2024/01/09 08:45:10;;;;;;;321.58;189.68;;;;;;;15.95;36.52;94120.84;4935302;28;20069;-90
2024/01/09 08:48:03;;;;;;;329.33;186.45;;;;;;;15.95;36.71;94123.56;4957800;28;20101;-89
2024/01/09 08:50:30;;;;;;;344.02;200.25;;;;;;;15.98;36.78;94128.06;4878144;29;20064;-90
2024/01/09 08:53:20;;;;;;;369.88;210.50;;;;;;;15.94;37.10;94133.72;4867906;29;20052;-89
2024/01/09 08:55:46;;;;;;;341.45;202.77;;;;;;;15.98;36.51;94131.53;4873925;29;20059;-90
2024/01/09 08:58:24;;;;;;;322.92;192.75;;;;;;;16.00;36.84;94131.06;4859316;29;20079;-88
2024/01/09 09:00:49;;;;;;;341.20;203.13;;;;;;;16.08;36.77;94138.34;4902628;29;20700;-89
2024/01/09 09:03:15;;;;;;;334.48;195.90;;;;;;;15.99;36.90;94130.31;4879776;29;20045;-90
2024/01/09 09:05:40;;;;;;;344.83;207.48;;;;;;;16.05;37.09;94142.03;4881442;29;20056;-89
2024/01/09 09:08:06;;;;;;;328.30;196.75;;;;;;;16.06;36.59;94145.50;4882035;29;20120;-89
2024/01/09 09:10:31;;;;;;;343.55;208.55;;;;;;;16.04;36.69;94150.69;4886853;29;20047;-86
2024/01/09 09:12:58;;;;;;;439.60;266.10;;;;;;;16.05;36.97;94150.22;4884991;29;20048;-89
2024/01/09 09:15:24;;;;;;;423.98;256.33;;;;;;;16.04;36.75;94159.63;4879243;29;20269;-89
2024/01/09 09:17:49;;;;;;;397.38;239.50;;;;;;;16.03;37.12;94154.63;4893517;29;20044;-88
2024/01/09 09:20:16;;;;;;;412.85;247.98;;;;;;;16.06;36.88;94159.13;4876994;29;20192;-89
2024/01/09 09:22:42;;;;;;;407.88;245.18;;;;;;;16.06;37.06;94157.16;4875329;29;20044;-90
2024/01/09 09:25:08;;;;;;;395.00;243.73;;;;;;;16.11;37.04;94161.94;4883503;29;20052;-88
2024/01/09 09:27:36;;;;;;;454.08;277.38;;;;;;;16.16;36.27;94154.31;4956851;28;20038;-89
2024/01/09 09:30:02;;;;;;;477.13;295.95;;;;;;;16.21;37.00;94159.09;4960654;28;20031;-90
2024/01/09 09:32:27;;;;;;;414.52;263.92;;;;;;;16.15;36.54;94152.81;4957579;28;20058;-88
2024/01/09 09:34:53;;;;;;;411.60;269.65;;;;;;;16.19;36.65;94161.53;4962595;28;20043;-89
2024/01/09 09:37:18;;;;;;;395.13;248.88;;;;;;;16.17;35.90;94153.09;4946660;28;20074;-89
2024/01/09 09:39:47;;;;;;;341.10;204.77;;;;;;;15.99;33.98;94149.41;4958859;28;20133;-88
2024/01/09 09:42:14;;;;;;;332.55;196.35;;;;;;;16.02;33.43;94145.69;4967086;28;20073;-87
2024/01/09 09:44:40;;;;;;;361.20;216.95;;;;;;;15.95;33.85;94148.84;4979354;28;20050;-90
2024/01/09 09:47:07;;;;;;;379.05;233.80;;;;;;;15.98;34.49;94145.19;4956753;28;20034;-90
2024/01/09 09:49:35;;;;;;;374.90;228.27;;;;;;;15.98;34.20;94144.44;4977549;28;20058;-89
2024/01/09 09:52:00;;;;;;;357.65;223.63;;;;;;;16.11;35.19;94139.38;4976697;28;20060;-88
2024/01/09 09:54:26;;;;;;;375.63;238.25;;;;;;;16.03;35.71;94141.00;4975285;28;20824;-89
2024/01/09 09:56:51;;;;;;;366.27;234.32;;;;;;;16.06;35.80;94143.53;4972813;28;20053;-88
2024/01/09 09:59:17;;;;;;;386.38;230.50;;;;;;;16.10;35.93;94137.88;4970063;28;20034;-88
2024/01/09 10:01:44;;;;;;;374.55;226.65;;;;;;;16.15;35.69;94141.91;4979252;28;20043;-88
2024/01/09 10:04:29;;;;;;;391.88;237.63;;;;;;;16.11;35.86;94142.09;4971146;28;20169;-89
2024/01/09 10:06:56;;;;;;;416.83;247.80;;;;;;;16.16;35.58;94143.41;4979486;28;20042;-90
2024/01/09 10:09:21;;;;;;;430.70;262.42;;;;;;;16.14;36.20;94132.97;4972853;28;20496;-88
2024/01/09 10:11:50;;;;;;;460.00;267.13;;;;;;;16.24;36.26;94142.50;4954719;28;20115;-87
2024/01/09 10:14:17;;;;;;;475.05;286.52;;;;;;;16.20;36.09;94144.69;4982384;28;20049;-88
2024/01/09 10:17:05;;;;;;;496.52;306.20;;;;;;;16.17;36.25;94151.09;4961923;28;20046;-88
2024/01/09 10:19:30;;;;;;;506.95;309.02;;;;;;;16.16;36.43;94146.13;4956103;28;20133;-89
2024/01/09 10:21:56;;;;;;;534.92;339.08;;;;;;;16.17;36.23;94147.63;4939862;28;20579;-88
2024/01/09 10:24:21;;;;;;;542.90;343.13;;;;;;;16.26;35.98;94147.47;4940235;28;20054;-89
2024/01/09 10:26:50;;;;;;;557.67;339.77;;;;;;;16.21;36.07;94135.28;4939953;28;20107;-89
2024/01/09 10:29:17;;;;;;;590.80;369.58;;;;;;;16.25;36.17;94143.25;4922965;28;20130;-89
2024/01/09 10:31:45;;;;;;;573.55;364.92;;;;;;;16.25;36.49;94143.25;4939616;28;20169;-89
2024/01/09 10:34:11;;;;;;;584.28;369.25;;;;;;;16.26;36.25;94128.38;4929776;28;20522;-93
2024/01/09 10:36:36;;;;;;;600.72;375.30;;;;;;;16.21;36.81;94135.28;4947811;28;20040;-88
2024/01/09 10:39:05;;;;;;;578.33;372.00;;;;;;;16.25;36.99;94135.81;4930020;28;20113;-88
2024/01/09 10:41:32;;;;;;;591.85;377.88;;;;;;;16.22;36.65;94133.31;4966162;28;20702;-89
2024/01/09 10:44:01;;;;;;;548.95;356.20;;;;;;;16.26;36.95;94128.38;4932486;29;20051;-89
2024/01/09 10:46:27;;;;;;;523.45;332.73;;;;;;;16.25;36.40;94124.91;4949012;28;20112;-90
2024/01/09 10:48:56;;;;;;;527.47;334.75;;;;;;;16.25;36.49;94124.91;4952311;28;20637;-89
2024/01/09 10:51:22;;;;;;;542.30;346.17;;;;;;;16.30;36.93;94131.66;4974521;28;20042;-90
2024/01/09 10:53:48;;;;;;;528.83;341.48;;;;;;;16.27;37.14;94124.41;4964095;28;20047;-89
2024/01/09 10:56:17;;;;;;;525.15;333.70;;;;;;;16.27;36.16;94129.88;4986537;28;20050;-89
2024/01/09 10:58:46;;;;;;;561.70;369.90;;;;;;;16.27;37.02;94127.16;4981566;28;20057;-90
2024/01/09 11:01:13;;;;;;;577.67;371.95;;;;;;;16.33;36.62;94119.78;4940048;28;20053;-88
2024/01/09 11:03:43;;;;;;;554.05;375.85;;;;;;;16.33;36.72;94125.97;4947781;28;20415;-90
2024/01/09 11:06:09;;;;;;;556.43;373.57;;;;;;;16.31;37.03;94122.22;4955732;28;20108;-90